createdAt,value
2018-12-07T00:00:32.985Z,96.97
2018-12-07T00:03:01.195Z,96.91
2018-12-07T00:05:29.391Z,97.11
2018-12-07T00:07:57.564Z,96.58
2018-12-07T00:10:25.947Z,96.81
2018-12-07T00:12:54.262Z,96.69
2018-12-07T00:15:22.404Z,97.35
2018-12-07T00:17:50.728Z,97.57
2018-12-07T00:20:19.000Z,97.40
2018-12-07T00:22:47.276Z,97.36
2018-12-07T00:25:16.003Z,97.30
2018-12-07T00:27:44.252Z,97.17
2018-12-07T00:30:12.531Z,97.50
2018-12-07T00:32:40.762Z,97.45
2018-12-07T00:35:09.112Z,97.09
2018-12-07T00:37:37.301Z,97.35
2018-12-07T00:40:06.949Z,97.07
2018-12-07T00:42:35.097Z,97.62
2018-12-07T00:45:03.619Z,97.44
2018-12-07T00:47:38.349Z,97.19
2018-12-07T00:50:06.749Z,97.59
2018-12-07T00:52:35.091Z,97.40
2018-12-07T00:55:03.401Z,97.25
2018-12-07T00:57:31.820Z,97.16
2018-12-07T00:59:59.977Z,97.50
2018-12-07T01:02:28.287Z,97.30
2018-12-07T01:04:56.576Z,97.14
2018-12-07T01:07:24.730Z,97.29
2018-12-07T01:09:52.904Z,97.84
2018-12-07T01:12:21.166Z,97.35
2018-12-07T01:14:49.546Z,97.44
2018-12-07T01:17:17.936Z,97.36
2018-12-07T01:19:46.120Z,97.17
2018-12-07T01:22:14.417Z,97.62
2018-12-07T01:24:42.645Z,97.67
2018-12-07T01:27:10.923Z,97.22
2018-12-07T01:29:39.155Z,97.30
2018-12-07T01:32:07.336Z,98.12
2018-12-07T01:34:35.597Z,97.49
2018-12-07T01:37:03.905Z,97.94
2018-12-07T01:39:32.069Z,97.57
2018-12-07T01:42:00.253Z,97.86
2018-12-07T01:44:28.486Z,97.40
2018-12-07T01:46:56.677Z,97.62
2018-12-07T01:49:24.921Z,97.65
2018-12-07T01:51:53.073Z,97.38
2018-12-07T01:54:21.255Z,97.47
2018-12-07T01:56:49.509Z,97.23
2018-12-07T01:59:17.749Z,97.66
2018-12-07T02:01:45.925Z,97.57
2018-12-07T02:04:15.680Z,97.86
2018-12-07T02:06:43.880Z,97.45
2018-12-07T02:09:12.042Z,97.17
2018-12-07T02:11:40.421Z,97.36
2018-12-07T02:14:08.645Z,97.55
2018-12-07T02:16:36.823Z,97.18
2018-12-07T02:19:05.169Z,97.16
2018-12-07T02:21:33.419Z,97.31
2018-12-07T02:24:02.505Z,97.18
2018-12-07T02:26:30.682Z,97.29
2018-12-07T02:28:58.938Z,97.04
2018-12-07T02:31:27.185Z,97.58
2018-12-07T02:33:56.999Z,97.55
2018-12-07T02:36:25.273Z,97.56
2018-12-07T02:38:54.248Z,97.67
2018-12-07T02:41:23.676Z,97.13
2018-12-07T02:43:51.935Z,97.56
2018-12-07T02:46:20.193Z,97.52
2018-12-07T02:48:48.422Z,97.41
2018-12-07T02:51:16.604Z,97.02
2018-12-07T02:53:44.777Z,97.69
2018-12-07T02:56:12.916Z,97.31
2018-12-07T02:58:41.268Z,97.42
2018-12-07T03:01:10.261Z,97.79
2018-12-07T03:03:38.404Z,97.39
2018-12-07T03:06:06.624Z,97.77
2018-12-07T03:08:34.969Z,97.74
2018-12-07T03:11:03.269Z,97.81
2018-12-07T03:13:31.524Z,97.78
2018-12-07T03:15:59.908Z,97.47
2018-12-07T03:18:31.219Z,97.90
2018-12-07T03:20:59.659Z,97.99
2018-12-07T03:23:27.885Z,97.92
2018-12-07T03:25:56.129Z,97.47
2018-12-07T03:28:25.095Z,97.99
2018-12-07T03:30:53.332Z,98.16
2018-12-07T03:33:21.514Z,97.74
2018-12-07T03:35:49.676Z,97.55
2018-12-07T03:38:17.864Z,97.62
2018-12-07T03:40:46.153Z,97.89
2018-12-07T03:43:14.372Z,97.88
2018-12-07T03:45:42.706Z,97.88
2018-12-07T03:48:10.900Z,97.55
2018-12-07T03:50:39.077Z,97.94
2018-12-07T03:53:07.220Z,97.67
2018-12-07T03:55:35.383Z,98.08
2018-12-07T03:58:03.568Z,97.52
2018-12-07T04:00:31.732Z,97.91
2018-12-07T04:02:59.926Z,97.70
2018-12-07T04:05:28.153Z,97.94
2018-12-07T04:07:56.394Z,97.86
2018-12-07T04:10:24.645Z,98.12
2018-12-07T04:12:52.828Z,98.06
2018-12-07T04:15:21.240Z,97.60
2018-12-07T04:17:49.575Z,98.04
2018-12-07T04:20:17.828Z,97.63
2018-12-07T04:22:45.960Z,97.83
2018-12-07T04:25:14.310Z,98.16
2018-12-07T04:27:42.511Z,97.78
2018-12-07T04:30:25.973Z,97.73
2018-12-07T04:32:54.310Z,97.67
2018-12-07T04:35:23.337Z,97.78
2018-12-07T04:37:51.561Z,98.00
2018-12-07T04:40:19.793Z,97.59
2018-12-07T04:42:48.075Z,97.71
2018-12-07T04:45:16.338Z,97.75
2018-12-07T04:47:44.581Z,98.01
2018-12-07T04:50:13.111Z,98.07
2018-12-07T04:52:42.264Z,98.11
2018-12-07T04:55:10.606Z,97.81
2018-12-07T04:57:39.757Z,97.97
2018-12-07T05:00:08.482Z,97.86
2018-12-07T05:02:36.741Z,98.23
2018-12-07T05:05:05.310Z,97.79
2018-12-07T05:07:33.497Z,98.09
2018-12-07T05:10:01.800Z,98.22
2018-12-07T05:12:30.009Z,98.07
2018-12-07T05:14:58.241Z,98.15
2018-12-07T05:17:26.461Z,98.08
2018-12-07T05:19:54.717Z,97.64
2018-12-07T05:22:22.864Z,97.72
2018-12-07T05:24:51.109Z,98.05
2018-12-07T05:27:19.233Z,98.13
2018-12-07T05:29:47.568Z,98.12
2018-12-07T05:32:15.745Z,98.13
2018-12-07T05:34:43.918Z,98.17
2018-12-07T05:37:13.149Z,97.72
2018-12-07T05:39:41.417Z,98.19
2018-12-07T05:42:09.585Z,98.30
2018-12-07T05:44:38.803Z,98.28
2018-12-07T05:47:07.465Z,97.91
2018-12-07T05:49:35.735Z,98.39
2018-12-07T05:52:04.005Z,97.88
2018-12-07T05:54:32.224Z,97.88
2018-12-07T05:57:00.404Z,98.33
2018-12-07T05:59:28.546Z,98.19
2018-12-07T06:01:56.725Z,98.31
2018-12-07T06:04:24.966Z,98.17
2018-12-07T06:06:53.157Z,98.33
2018-12-07T06:09:21.344Z,98.46
2018-12-07T06:11:49.488Z,97.91
2018-12-07T06:14:36.220Z,98.04
2018-12-07T06:17:04.440Z,98.33
2018-12-07T06:19:32.705Z,98.05
2018-12-07T06:22:00.877Z,98.43
2018-12-07T06:24:29.108Z,98.02
2018-12-07T06:26:57.325Z,98.51
2018-12-07T06:29:25.497Z,98.01
2018-12-07T06:31:53.846Z,98.12
2018-12-07T06:34:22.089Z,98.55
2018-12-07T06:36:50.438Z,98.39
2018-12-07T06:39:18.659Z,98.46
2018-12-07T06:41:46.841Z,98.27
2018-12-07T06:44:15.027Z,98.16
2018-12-07T06:46:43.274Z,98.29
2018-12-07T06:49:12.698Z,98.35
2018-12-07T06:51:42.139Z,97.99
2018-12-07T06:54:10.375Z,98.10
2018-12-07T06:56:38.792Z,97.83
2018-12-07T06:59:06.977Z,98.24
2018-12-07T07:01:35.221Z,98.17
2018-12-07T07:04:03.713Z,98.19
2018-12-07T07:06:32.120Z,98.34
2018-12-07T07:09:00.300Z,97.90
2018-12-07T07:11:28.552Z,98.36
2018-12-07T07:13:56.840Z,97.98
2018-12-07T07:16:25.093Z,98.18
2018-12-07T07:18:53.490Z,98.24
2018-12-07T07:21:21.676Z,97.77
2018-12-07T07:23:50.026Z,97.72
2018-12-07T07:26:18.233Z,97.89
2018-12-07T07:28:46.460Z,97.64
2018-12-07T07:31:14.705Z,97.40
2018-12-07T07:33:43.004Z,97.28
2018-12-07T07:36:11.312Z,97.29
2018-12-07T07:38:39.738Z,97.09
2018-12-07T07:41:08.066Z,97.48
2018-12-07T07:43:36.333Z,97.18
2018-12-07T07:46:04.661Z,96.56
2018-12-07T07:48:39.107Z,97.02
2018-12-07T07:51:07.377Z,97.25
2018-12-07T07:53:35.647Z,97.17
2018-12-07T07:56:03.893Z,97.15
2018-12-07T07:58:32.181Z,96.78
2018-12-07T08:01:00.341Z,96.97
2018-12-07T08:03:28.522Z,97.29
2018-12-07T08:05:56.809Z,97.44
2018-12-07T08:08:25.169Z,97.18
2018-12-07T08:10:53.378Z,96.97
2018-12-07T08:13:21.560Z,97.22
2018-12-07T08:15:49.780Z,96.42
2018-12-07T08:18:17.904Z,97.09
2018-12-07T08:20:46.245Z,97.06
2018-12-07T08:23:14.897Z,96.37
2018-12-07T08:25:43.456Z,96.92
2018-12-07T08:28:11.628Z,96.26
2018-12-07T08:30:40.131Z,96.85
2018-12-07T08:33:08.317Z,97.08
2018-12-07T08:35:36.584Z,96.36
2018-12-07T08:38:04.888Z,96.50
2018-12-07T08:40:33.326Z,96.42
2018-12-07T08:43:01.577Z,96.06
2018-12-07T08:45:29.877Z,96.16
2018-12-07T08:47:58.054Z,96.49
2018-12-07T08:50:26.423Z,96.05
2018-12-07T08:52:54.680Z,96.54
2018-12-07T08:55:22.928Z,96.77
2018-12-07T08:57:51.332Z,96.14
2018-12-07T09:00:19.791Z,95.85
2018-12-07T09:02:48.031Z,96.31
2018-12-07T09:05:16.488Z,96.51
2018-12-07T09:07:44.642Z,96.12
2018-12-07T09:10:13.025Z,95.97
2018-12-07T09:12:42.504Z,96.36
2018-12-07T09:15:10.845Z,96.33
2018-12-07T09:17:39.041Z,95.91
2018-12-07T09:20:08.131Z,96.53
2018-12-07T09:22:36.436Z,96.12
2018-12-07T09:25:05.076Z,96.33
2018-12-07T09:27:33.276Z,95.72
2018-12-07T09:30:01.490Z,95.93
2018-12-07T09:32:29.759Z,95.83
2018-12-07T09:34:58.147Z,96.23
2018-12-07T09:37:26.411Z,95.92
2018-12-07T09:39:54.720Z,96.41
2018-12-07T09:42:22.880Z,96.48
2018-12-07T09:44:51.050Z,96.30
2018-12-07T09:47:19.266Z,96.51
2018-12-07T09:49:47.648Z,96.36
2018-12-07T09:52:15.942Z,96.28
2018-12-07T09:54:44.168Z,96.16
2018-12-07T09:57:12.415Z,96.49
2018-12-07T09:59:40.571Z,96.15
2018-12-07T10:02:08.971Z,96.34
2018-12-07T10:04:37.196Z,96.36
2018-12-07T10:07:05.649Z,96.59
2018-12-07T10:09:33.909Z,96.89
2018-12-07T10:12:02.126Z,96.88
2018-12-07T10:14:30.423Z,96.60
2018-12-07T10:16:58.618Z,96.64
2018-12-07T10:19:26.829Z,96.71
2018-12-07T10:21:55.050Z,96.37
2018-12-07T10:24:23.263Z,96.47
2018-12-07T10:26:51.501Z,96.17
2018-12-07T10:29:19.783Z,96.43
2018-12-07T10:31:47.989Z,96.55
2018-12-07T10:34:16.255Z,96.13
2018-12-07T10:36:44.423Z,96.33
2018-12-07T10:39:12.661Z,96.71
2018-12-07T10:41:40.993Z,96.33
2018-12-07T10:44:09.266Z,95.66
2018-12-07T10:46:37.457Z,96.33
2018-12-07T10:49:05.689Z,96.52
2018-12-07T10:51:33.890Z,96.46
2018-12-07T10:54:02.192Z,96.64
2018-12-07T10:56:30.359Z,96.77
2018-12-07T10:58:58.561Z,96.44
2018-12-07T11:01:32.247Z,96.42
2018-12-07T11:04:05.620Z,96.59
2018-12-07T11:09:18.733Z,96.38
2018-12-07T11:11:52.204Z,96.13
2018-12-07T11:14:25.851Z,96.16
2018-12-07T11:16:59.494Z,96.37
2018-12-07T11:19:32.941Z,96.55
2018-12-07T11:22:06.441Z,96.66
2018-12-07T11:24:39.877Z,96.85
2018-12-07T11:27:13.233Z,96.76
2018-12-07T11:31:49.772Z,96.53
2018-12-07T11:34:22.542Z,96.52
2018-12-07T11:36:50.796Z,96.92
2018-12-07T11:39:19.085Z,96.43
2018-12-07T11:41:47.230Z,96.07
2018-12-07T11:44:15.378Z,96.22
2018-12-07T11:46:44.201Z,96.17
2018-12-07T11:49:12.445Z,96.76
2018-12-07T11:51:40.748Z,96.49
2018-12-07T11:54:08.902Z,96.04
2018-12-07T11:56:37.072Z,96.47
2018-12-07T11:59:05.230Z,96.12
2018-12-07T12:01:33.436Z,96.52
2018-12-07T12:04:01.580Z,96.59
2018-12-07T12:06:29.872Z,96.08
2018-12-07T12:08:58.033Z,96.33
2018-12-07T12:11:26.268Z,97.08
2018-12-07T12:13:54.467Z,96.27
2018-12-07T12:16:22.697Z,96.36
2018-12-07T12:18:50.853Z,96.87
2018-12-07T12:21:19.013Z,96.77
2018-12-07T12:23:53.415Z,96.90
2018-12-07T12:26:17.441Z,97.11
2018-12-07T12:28:45.593Z,96.99
2018-12-07T12:31:13.773Z,96.47
2018-12-07T12:33:41.941Z,96.46
2018-12-07T12:36:16.765Z,95.81
2018-12-07T12:38:40.422Z,96.02
2018-12-07T12:41:08.713Z,96.72
2018-12-07T12:43:36.982Z,96.26
2018-12-07T12:46:05.248Z,95.92
2018-12-07T12:48:33.458Z,96.61
2018-12-07T12:51:01.714Z,96.36
2018-12-07T12:53:30.008Z,96.87
2018-12-07T12:55:58.168Z,96.28
2018-12-07T12:58:26.408Z,96.33
2018-12-07T13:00:54.625Z,96.79
2018-12-07T13:03:22.865Z,96.27
2018-12-07T13:05:51.149Z,96.21
2018-12-07T13:08:19.388Z,96.77
2018-12-07T13:10:47.647Z,96.90
2018-12-07T13:13:15.849Z,96.53
2018-12-07T13:15:44.144Z,97.12
2018-12-07T13:18:12.339Z,97.25
2018-12-07T13:20:40.641Z,97.14
2018-12-07T13:23:08.939Z,96.66
2018-12-07T13:25:37.534Z,97.00
2018-12-07T13:28:05.763Z,96.85
2018-12-07T13:30:33.917Z,97.12
2018-12-07T13:33:02.177Z,96.79
2018-12-07T13:35:30.477Z,96.93
2018-12-07T13:37:58.728Z,96.82
2018-12-07T13:40:27.189Z,96.77
2018-12-07T13:42:55.759Z,96.58
2018-12-07T13:45:24.370Z,97.16
2018-12-07T13:47:52.808Z,97.08
2018-12-07T13:50:26.578Z,96.40
2018-12-07T13:52:55.036Z,96.36
2018-12-07T13:55:23.226Z,95.57
2018-12-07T13:57:51.500Z,95.92
2018-12-07T14:00:19.864Z,96.08
2018-12-07T14:02:48.654Z,95.18
2018-12-07T14:05:17.053Z,95.13
2018-12-07T14:07:45.366Z,95.28
2018-12-07T14:10:13.761Z,95.58
2018-12-07T14:12:42.069Z,95.74
2018-12-07T14:15:10.648Z,95.08
2018-12-07T14:17:39.012Z,95.61
2018-12-07T14:20:08.198Z,95.56
2018-12-07T14:22:36.446Z,95.02
2018-12-07T14:25:05.060Z,95.09
2018-12-07T14:27:33.568Z,95.79
2018-12-07T14:30:01.820Z,95.46
2018-12-07T14:32:30.235Z,95.62
2018-12-07T14:34:58.571Z,96.29
2018-12-07T14:37:26.766Z,95.82
2018-12-07T14:39:55.048Z,95.80
2018-12-07T14:42:23.348Z,96.17
2018-12-07T14:44:51.601Z,95.84
2018-12-07T14:47:20.041Z,96.26
2018-12-07T14:49:48.518Z,96.61
2018-12-07T14:52:16.862Z,95.56
2018-12-07T14:54:45.252Z,96.18
2018-12-07T14:57:13.613Z,96.53
2018-12-07T14:59:41.950Z,96.87
2018-12-07T15:02:10.242Z,96.41
2018-12-07T15:04:38.462Z,96.48
2018-12-07T15:07:06.779Z,95.87
2018-12-07T15:09:35.003Z,95.83
2018-12-07T15:12:03.385Z,96.17
2018-12-07T15:14:31.625Z,96.10
2018-12-07T15:16:59.993Z,95.56
2018-12-07T15:19:28.278Z,95.14
2018-12-07T15:21:56.675Z,95.70
2018-12-07T15:24:25.054Z,95.31
2018-12-07T15:26:53.339Z,94.54
2018-12-07T15:29:21.988Z,94.95
2018-12-07T15:31:50.395Z,94.79
2018-12-07T15:34:19.036Z,94.43
2018-12-07T15:36:49.026Z,94.73
2018-12-07T15:39:17.547Z,94.84
2018-12-07T15:41:45.940Z,94.67
2018-12-07T15:44:14.476Z,95.33
2018-12-07T15:46:43.116Z,95.31
2018-12-07T15:49:11.658Z,94.93
2018-12-07T15:51:39.979Z,94.54
2018-12-07T15:54:08.292Z,95.07
2018-12-07T15:56:36.574Z,95.35
2018-12-07T15:59:04.878Z,94.79
2018-12-07T16:01:33.363Z,94.99
2018-12-07T16:04:01.830Z,94.75
2018-12-07T16:06:30.230Z,95.16
2018-12-07T16:08:58.485Z,95.44
2018-12-07T16:11:26.970Z,95.14
2018-12-07T16:13:55.271Z,95.38
2018-12-07T16:16:23.596Z,95.33
2018-12-07T16:18:51.902Z,95.65
2018-12-07T16:21:20.337Z,95.50
2018-12-07T16:23:48.822Z,96.06
2018-12-07T16:26:17.296Z,95.87
2018-12-07T16:28:45.634Z,96.13
2018-12-07T16:31:13.911Z,95.89
2018-12-07T16:33:42.369Z,96.40
2018-12-07T16:36:10.838Z,96.21
2018-12-07T16:38:39.162Z,96.27
2018-12-07T16:41:07.446Z,96.33
2018-12-07T16:43:35.822Z,96.00
2018-12-07T16:46:04.344Z,96.22
2018-12-07T16:48:32.604Z,96.20
2018-12-07T16:51:00.994Z,96.21
2018-12-07T16:53:31.096Z,96.70
2018-12-07T16:55:59.534Z,96.56
2018-12-07T16:58:27.782Z,96.43
2018-12-07T17:00:56.129Z,96.53
2018-12-07T17:03:24.417Z,96.57
2018-12-07T17:05:52.802Z,95.81
2018-12-07T17:08:21.274Z,95.62
2018-12-07T17:10:49.929Z,96.38
2018-12-07T17:13:18.255Z,96.39
2018-12-07T17:15:46.555Z,96.36
2018-12-07T17:18:14.817Z,96.17
2018-12-07T17:20:43.284Z,95.78
2018-12-07T17:23:12.696Z,94.98
2018-12-07T17:25:41.411Z,96.09
2018-12-07T17:28:09.905Z,95.61
2018-12-07T17:30:38.534Z,95.41
2018-12-07T17:33:07.256Z,95.62
2018-12-07T17:35:35.569Z,95.27
2018-12-07T17:38:03.939Z,95.29
2018-12-07T17:40:32.345Z,95.95
2018-12-07T17:43:00.899Z,95.18
2018-12-07T17:48:22.236Z,94.98
2018-12-07T17:50:50.683Z,95.05
2018-12-07T17:53:18.900Z,94.72
2018-12-07T17:55:47.381Z,95.15
2018-12-07T17:58:15.782Z,95.22
2018-12-07T18:00:44.214Z,95.17
2018-12-07T18:03:12.358Z,95.04
2018-12-07T18:05:40.754Z,95.37
2018-12-07T18:08:09.110Z,95.67
2018-12-07T18:10:37.699Z,95.04
2018-12-07T18:13:06.078Z,94.76
2018-12-07T18:15:34.484Z,94.31
2018-12-07T18:18:02.798Z,94.93
2018-12-07T18:20:31.272Z,95.31
2018-12-07T18:22:59.689Z,95.18
2018-12-07T18:25:28.083Z,95.19
2018-12-07T18:27:56.552Z,94.50
2018-12-07T18:30:25.126Z,94.87
2018-12-07T18:32:53.388Z,95.22
2018-12-07T18:35:22.097Z,94.16
2018-12-07T18:37:50.451Z,94.25
2018-12-07T18:40:18.982Z,95.05
2018-12-07T18:42:47.283Z,94.73
2018-12-07T18:45:15.934Z,94.80
2018-12-07T18:47:44.365Z,95.05
2018-12-07T18:50:12.592Z,95.36
2018-12-07T18:52:41.749Z,95.03
2018-12-07T18:55:10.686Z,94.99
2018-12-07T18:57:39.363Z,94.37
2018-12-07T19:00:08.949Z,94.59
2018-12-07T19:02:37.514Z,94.10
2018-12-07T19:05:06.030Z,93.95
2018-12-07T19:07:34.202Z,93.71
2018-12-07T19:10:02.700Z,93.47
2018-12-07T19:12:31.016Z,93.75
2018-12-07T19:14:59.569Z,94.27
2018-12-07T19:17:28.224Z,93.95
2018-12-07T19:19:56.582Z,94.55
2018-12-07T19:22:25.081Z,93.50
2018-12-07T19:24:53.820Z,94.73
2018-12-07T19:27:22.378Z,94.71
2018-12-07T19:29:51.000Z,93.80
2018-12-07T19:32:19.585Z,94.54
2018-12-07T19:34:49.872Z,94.50
2018-12-07T19:37:18.199Z,95.19
2018-12-07T19:39:46.615Z,94.45
2018-12-07T19:42:15.005Z,93.75
2018-12-07T19:44:43.360Z,93.20
2018-12-07T19:47:11.740Z,93.39
2018-12-07T19:49:40.365Z,93.31
2018-12-07T19:52:09.006Z,93.88
2018-12-07T19:54:37.717Z,94.55
2018-12-07T19:57:06.217Z,94.35
2018-12-07T19:59:34.834Z,94.45
2018-12-07T20:02:04.104Z,94.60
2018-12-07T20:04:32.408Z,94.53
2018-12-07T20:07:00.884Z,94.37
2018-12-07T20:09:29.649Z,94.98
2018-12-07T20:11:58.420Z,95.10
2018-12-07T20:14:26.905Z,95.02
2018-12-07T20:16:55.343Z,95.00
2018-12-07T20:19:23.942Z,94.81
2018-12-07T20:21:52.169Z,94.70
2018-12-07T20:24:20.686Z,93.96
2018-12-07T20:26:49.050Z,92.13
2018-12-07T20:29:17.378Z,93.09
2018-12-07T20:31:45.761Z,93.30
2018-12-07T20:34:14.192Z,94.15
2018-12-07T20:36:42.601Z,94.18
2018-12-07T20:39:11.535Z,93.78
2018-12-07T20:41:39.771Z,93.75
2018-12-07T20:44:08.223Z,93.99
2018-12-07T20:46:36.744Z,94.54
2018-12-07T20:49:05.877Z,94.61
2018-12-07T20:51:34.281Z,93.06
2018-12-07T20:54:02.626Z,93.63
2018-12-07T20:56:31.559Z,93.34
2018-12-07T20:59:00.190Z,93.49
2018-12-07T21:01:28.850Z,92.81
2018-12-07T21:05:06.542Z,92.42
2018-12-07T21:07:50.957Z,92.76
2018-12-07T21:10:57.365Z,91.27
2018-12-07T21:14:34.751Z,91.52
2018-12-07T21:17:17.675Z,90.61
2018-12-07T21:20:48.899Z,91.16
2018-12-07T21:23:17.923Z,91.04
2018-12-07T21:25:52.494Z,91.10
2018-12-07T21:28:21.707Z,91.21
2018-12-07T21:30:55.917Z,91.12
2018-12-07T21:33:34.899Z,91.91
2018-12-07T21:39:02.546Z,90.04
2018-12-07T21:41:31.264Z,90.70
2018-12-07T21:43:59.601Z,90.35
2018-12-07T21:46:28.134Z,89.69
2018-12-07T21:48:56.606Z,89.93
2018-12-07T21:52:37.364Z,89.03
2018-12-07T21:55:06.308Z,89.45
2018-12-07T21:57:34.680Z,89.02
2018-12-07T22:00:03.086Z,89.14
2018-12-07T22:02:31.811Z,88.09
2018-12-07T22:05:00.114Z,87.24
2018-12-07T22:07:28.417Z,88.82
2018-12-07T22:09:56.894Z,89.95
2018-12-07T22:12:25.166Z,90.01
2018-12-07T22:14:53.924Z,89.42
2018-12-07T22:17:22.282Z,90.26
2018-12-07T22:19:50.822Z,89.80
2018-12-07T22:22:19.774Z,90.05
2018-12-07T22:24:48.565Z,90.29
2018-12-07T22:27:16.901Z,89.72
2018-12-07T22:29:45.238Z,90.23
2018-12-07T22:32:14.147Z,89.36
2018-12-07T22:34:42.755Z,90.85
2018-12-07T22:37:11.377Z,90.44
2018-12-07T22:39:39.764Z,90.68
2018-12-07T22:42:08.247Z,89.91
2018-12-07T22:44:37.372Z,90.61
2018-12-07T22:47:06.269Z,91.02
2018-12-07T22:49:34.911Z,90.53
2018-12-07T22:52:03.454Z,90.68
2018-12-07T22:54:31.711Z,90.77
2018-12-07T22:57:00.284Z,90.48
2018-12-07T22:59:28.483Z,90.96
2018-12-07T23:01:57.039Z,91.45
2018-12-07T23:04:26.030Z,91.49
2018-12-07T23:06:54.657Z,89.37
2018-12-07T23:09:22.982Z,89.95
2018-12-07T23:11:51.126Z,90.29
2018-12-07T23:14:19.259Z,89.68
2018-12-07T23:16:54.134Z,89.52
2018-12-07T23:19:22.361Z,89.80
2018-12-07T23:21:50.608Z,90.26
2018-12-07T23:24:19.076Z,90.24
2018-12-07T23:26:47.377Z,89.70
2018-12-07T23:29:21.449Z,90.10
2018-12-07T23:31:49.926Z,90.45
2018-12-07T23:34:18.355Z,90.68
2018-12-07T23:36:46.569Z,89.23
2018-12-07T23:39:14.713Z,89.26
2018-12-07T23:41:42.989Z,88.70
2018-12-07T23:44:11.177Z,89.53
2018-12-07T23:46:39.535Z,89.11
2018-12-07T23:49:07.652Z,89.65
2018-12-07T23:51:35.978Z,89.13
2018-12-07T23:54:04.246Z,89.48
2018-12-07T23:56:32.556Z,89.82
2018-12-07T23:59:00.776Z,88.94
